Time;durP1;ratioP1;P1;durP2;ratioP2;P2;SDS_P1;SDS_P2;PMS_P1;PMS_P2;Temp;Humidity;BMP_temperature;BMP_pressure;BME280_temperature;BME280_humidity;BME280_pressure;Samples;Min_cycle;Max_cycle;Signal;HPM_P1;HPM_P2
2023/07/14 00:01:11;;;;;;;;;37.00;32.00;;;;;;;;5042683;28;47128;-71
2023/07/14 00:03:37;;;;;;;;;45.00;36.33;;;;;;;;5038186;28;45785;-69
2023/07/14 00:06:02;;;;;;;;;42.00;32.33;;;;;;;;5053455;28;45500;-70
2023/07/14 00:08:30;;;;;;;;;43.33;35.00;;;;;;;;5053004;28;46358;-70
2023/07/14 00:10:56;;;;;;;;;53.33;43.33;;;;;;;;5058803;28;45899;-70
2023/07/14 00:13:21;;;;;;;;;34.33;31.33;;;;;;;;5070667;28;45920;-70
2023/07/14 00:15:46;;;;;;;;;47.67;36.67;;;;;;;;5067725;28;45801;-71
2023/07/14 00:18:24;;;;;;;;;62.50;47.75;;;;;;;;5051985;28;45880;-70
2023/07/14 00:20:49;;;;;;;;;46.33;38.33;;;;;;;;5047134;28;45732;-72
2023/07/14 00:23:15;;;;;;;;;55.25;43.25;;;;;;;;5068005;28;45393;-72
2023/07/14 00:25:40;;;;;;;;;43.00;35.67;;;;;;;;5069615;28;45421;-70
2023/07/14 00:28:17;;;;;;;;;57.67;43.67;;;;;;;;5053361;28;47019;-70
2023/07/14 00:30:42;;;;;;;;;44.67;38.00;;;;;;;;5069047;28;45369;-71
2023/07/14 00:33:15;;;;;;;;;45.00;37.67;;;;;;;;5066409;28;45792;-70
2023/07/14 00:35:41;;;;;;;;;25.67;21.67;;;;;;;;5058108;28;45619;-70
2023/07/14 00:38:06;;;;;;;;;32.00;28.00;;;;;;;;5070065;28;45538;-71
2023/07/14 00:40:39;;;;;;;;;33.00;28.00;;;;;;;;5077710;27;45508;-71
2023/07/14 00:43:09;;;;;;;;;28.00;25.67;;;;;;;;5063172;28;46478;-69
2023/07/14 00:45:35;;;;;;;;;25.33;22.00;;;;;;;;5056646;28;46000;-70
2023/07/14 00:48:04;;;;;;;;;23.00;18.33;;;;;;;;5056175;28;45467;-71
2023/07/14 00:50:39;;;;;;;;;22.33;21.00;;;;;;;;5043877;28;45723;-70
2023/07/14 00:53:06;;;;;;;;;18.33;17.00;;;;;;;;5058586;28;45789;-71
2023/07/14 00:55:31;;;;;;;;;20.33;18.33;;;;;;;;5054553;28;45577;-68
2023/07/14 00:57:57;;;;;;;;;19.00;18.33;;;;;;;;5045069;28;46016;-71
2023/07/14 01:00:30;;;;;;;;;21.00;19.67;;;;;;;;5050266;28;46026;-69
2023/07/14 01:02:56;;;;;;;;;20.00;16.67;;;;;;;;5050758;28;45721;-71
2023/07/14 01:05:21;;;;;;;;;26.33;21.33;;;;;;;;5037761;28;45615;-70
2023/07/14 01:07:47;;;;;;;;;25.67;17.00;;;;;;;;5074201;28;45301;-70
2023/07/14 01:10:14;;;;;;;;;10.00;10.00;;;;;;;;5072975;28;45972;-72
2023/07/14 01:12:41;;;;;;;;;9.00;9.00;;;;;;;;5074268;28;45469;-70
2023/07/14 01:15:07;;;;;;;;;11.00;8.67;;;;;;;;5052835;28;45838;-70
2023/07/14 01:17:35;;;;;;;;;9.67;9.00;;;;;;;;5042838;28;45763;-68
2023/07/14 01:20:01;;;;;;;;;9.67;8.00;;;;;;;;5045514;28;45883;-69
2023/07/14 01:22:26;;;;;;;;;7.67;6.67;;;;;;;;5060110;28;45432;-70
2023/07/14 01:24:55;;;;;;;;;9.00;7.33;;;;;;;;5060734;28;45579;-71
2023/07/14 01:27:21;;;;;;;;;9.50;8.50;;;;;;;;5051227;28;46319;-70
2023/07/14 01:29:47;;;;;;;;;7.00;6.00;;;;;;;;5062709;28;45959;-69
2023/07/14 01:32:15;;;;;;;;;7.67;7.67;;;;;;;;5050640;28;45817;-69
2023/07/14 01:34:40;;;;;;;;;6.00;5.00;;;;;;;;5048579;28;45331;-70
2023/07/14 01:37:05;;;;;;;;;6.00;5.00;;;;;;;;5038493;28;45771;-69
2023/07/14 01:39:31;;;;;;;;;9.33;9.33;;;;;;;;5029890;28;47882;-70
2023/07/14 01:41:56;;;;;;;;;15.00;12.00;;;;;;;;5039982;28;45538;-68
2023/07/14 01:44:21;;;;;;;;;7.67;7.67;;;;;;;;5046453;28;45520;-69
2023/07/14 01:46:48;;;;;;;;;6.33;6.33;;;;;;;;5047521;28;45795;-70
2023/07/14 01:49:25;;;;;;;;;6.67;5.67;;;;;;;;5038197;28;45817;-70
2023/07/14 01:51:51;;;;;;;;;6.00;6.00;;;;;;;;5073054;28;45441;-69
2023/07/14 01:54:36;;;;;;;;;7.67;6.00;;;;;;;;5072432;28;45440;-69
2023/07/14 01:57:03;;;;;;;;;10.00;8.33;;;;;;;;5061714;28;45843;-71
2023/07/14 01:59:40;;;;;;;;;10.00;7.33;;;;;;;;5040665;28;45762;-69
2023/07/14 02:02:11;;;;;;;;;11.67;9.33;;;;;;;;5040907;28;45689;-70
2023/07/14 02:04:37;;;;;;;;;11.00;10.00;;;;;;;;5048169;28;45969;-68
2023/07/14 02:07:03;;;;;;;;;14.00;12.33;;;;;;;;5050063;28;45805;-68
2023/07/14 02:09:29;;;;;;;;;13.33;13.33;;;;;;;;5043118;28;46797;-70
2023/07/14 02:11:59;;;;;;;;;15.67;12.33;;;;;;;;5045524;28;45385;-68
2023/07/14 02:14:27;;;;;;;;;15.67;11.67;;;;;;;;5041640;28;45459;-69
2023/07/14 02:16:57;;;;;;;;;19.00;15.33;;;;;;;;5064946;28;45675;-70
2023/07/14 02:19:24;;;;;;;;;16.67;14.33;;;;;;;;5054005;28;47131;-70
2023/07/14 02:21:50;;;;;;;;;15.67;12.33;;;;;;;;5069478;28;45455;-68
2023/07/14 02:24:18;;;;;;;;;14.67;14.67;;;;;;;;5035932;28;45877;-68
2023/07/14 02:26:45;;;;;;;;;12.67;12.00;;;;;;;;5048651;28;45880;-69
2023/07/14 02:29:10;;;;;;;;;19.67;17.33;;;;;;;;5053552;28;45427;-69
2023/07/14 02:31:44;;;;;;;;;15.67;14.00;;;;;;;;5051190;28;45730;-68
2023/07/14 02:34:10;;;;;;;;;25.33;17.67;;;;;;;;5067064;28;45341;-67
2023/07/14 02:36:42;;;;;;;;;18.00;14.33;;;;;;;;5055145;28;45342;-67
2023/07/14 02:39:07;;;;;;;;;7.67;7.67;;;;;;;;5047716;28;46395;-69
2023/07/14 02:41:35;;;;;;;;;16.00;15.00;;;;;;;;5059070;28;45440;-70
2023/07/14 02:44:02;;;;;;;;;18.33;18.33;;;;;;;;5062508;28;45524;-67
2023/07/14 02:46:28;;;;;;;;;16.67;14.00;;;;;;;;5059332;28;45691;-67
2023/07/14 02:48:53;;;;;;;;;16.00;9.67;;;;;;;;5042678;28;45963;-68
2023/07/14 02:51:18;;;;;;;;;22.67;16.33;;;;;;;;5032698;28;45405;-66
2023/07/14 02:53:44;;;;;;;;;16.33;14.67;;;;;;;;5046615;28;45884;-67
2023/07/14 02:56:09;;;;;;;;;17.67;14.67;;;;;;;;5040950;28;45460;-65
2023/07/14 02:58:36;;;;;;;;;10.33;9.00;;;;;;;;5066664;28;45732;-66
2023/07/14 03:01:02;;;;;;;;;14.33;13.33;;;;;;;;5041495;28;45394;-68
2023/07/14 03:03:27;;;;;;;;;16.67;13.67;;;;;;;;5047585;28;45831;-68
2023/07/14 03:05:53;;;;;;;;;15.67;14.00;;;;;;;;5041078;28;45705;-67
2023/07/14 03:08:18;;;;;;;;;13.00;11.67;;;;;;;;5039948;28;45833;-67
2023/07/14 03:10:44;;;;;;;;;13.50;13.50;;;;;;;;5040939;28;45500;-67
2023/07/14 03:13:10;;;;;;;;;18.33;15.67;;;;;;;;5022887;28;45381;-68
2023/07/14 03:15:35;;;;;;;;;15.67;14.00;;;;;;;;5044206;28;46004;-69
2023/07/14 03:18:00;;;;;;;;;15.67;14.33;;;;;;;;5049759;28;47350;-69
2023/07/14 03:20:26;;;;;;;;;14.00;14.00;;;;;;;;5055702;28;45417;-67
2023/07/14 03:22:51;;;;;;;;;17.67;14.00;;;;;;;;5051014;28;45518;-68
2023/07/14 03:25:16;;;;;;;;;13.67;12.67;;;;;;;;5036421;28;46211;-67
2023/07/14 03:27:43;;;;;;;;;17.33;16.00;;;;;;;;5041065;28;46633;-67
2023/07/14 03:30:09;;;;;;;;;17.33;12.00;;;;;;;;5047417;28;45581;-68
2023/07/14 03:32:34;;;;;;;;;18.67;15.00;;;;;;;;5037412;28;45798;-67
2023/07/14 03:34:59;;;;;;;;;11.00;11.00;;;;;;;;5046499;28;45456;-67
2023/07/14 03:37:25;;;;;;;;;18.00;16.00;;;;;;;;5051323;28;45635;-65
2023/07/14 03:39:50;;;;;;;;;24.67;22.00;;;;;;;;5055747;28;45953;-67
2023/07/14 03:42:15;;;;;;;;;16.67;13.00;;;;;;;;5051434;28;45693;-67
2023/07/14 03:44:40;;;;;;;;;23.67;17.67;;;;;;;;5040613;28;45836;-67
2023/07/14 03:47:05;;;;;;;;;36.67;25.67;;;;;;;;5065239;28;45497;-67
2023/07/14 03:49:31;;;;;;;;;20.00;17.33;;;;;;;;5033885;28;45493;-67
2023/07/14 03:51:56;;;;;;;;;21.00;17.67;;;;;;;;5031775;28;45669;-67
2023/07/14 03:54:21;;;;;;;;;17.67;16.67;;;;;;;;5032963;28;45727;-67
2023/07/14 03:56:47;;;;;;;;;20.33;18.33;;;;;;;;5035951;28;46476;-66
2023/07/14 03:59:15;;;;;;;;;20.00;19.00;;;;;;;;5025230;28;45472;-67
2023/07/14 04:01:40;;;;;;;;;18.67;17.00;;;;;;;;5038918;28;45639;-68
2023/07/14 04:04:06;;;;;;;;;19.67;17.00;;;;;;;;5054691;28;45481;-67
2023/07/14 04:06:31;;;;;;;;;17.33;12.33;;;;;;;;5046687;28;46124;-66
2023/07/14 04:08:57;;;;;;;;;19.33;14.67;;;;;;;;5055736;28;45463;-68
2023/07/14 04:11:23;;;;;;;;;18.67;16.33;;;;;;;;5069308;28;45366;-67
2023/07/14 04:13:48;;;;;;;;;21.67;15.33;;;;;;;;5036612;28;45742;-68
2023/07/14 04:16:13;;;;;;;;;16.00;15.00;;;;;;;;5055290;28;45829;-69
2023/07/14 04:18:38;;;;;;;;;10.67;8.67;;;;;;;;5039332;28;45846;-67
2023/07/14 04:21:06;;;;;;;;;19.67;17.33;;;;;;;;5054549;28;45479;-68
2023/07/14 04:23:32;;;;;;;;;18.33;11.00;;;;;;;;5058896;28;45740;-68
2023/07/14 04:25:57;;;;;;;;;13.33;11.67;;;;;;;;5048223;28;45580;-66
2023/07/14 04:28:22;;;;;;;;;11.33;11.00;;;;;;;;5026022;28;45723;-65
2023/07/14 04:30:58;;;;;;;;;16.67;13.33;;;;;;;;5059925;28;45322;-69
2023/07/14 04:33:24;;;;;;;;;17.33;12.67;;;;;;;;5042436;28;45382;-68
2023/07/14 04:35:49;;;;;;;;;20.00;14.67;;;;;;;;5036773;28;48144;-67
2023/07/14 04:38:15;;;;;;;;;15.00;15.00;;;;;;;;5049875;28;45433;-66
2023/07/14 04:40:40;;;;;;;;;11.67;9.00;;;;;;;;5060616;28;45480;-67
2023/07/14 04:43:05;;;;;;;;;18.33;14.00;;;;;;;;5050683;28;46124;-68
2023/07/14 04:45:31;;;;;;;;;11.33;10.00;;;;;;;;5072097;28;46037;-67
2023/07/14 04:47:56;;;;;;;;;20.33;15.67;;;;;;;;5058988;28;45570;-66
2023/07/14 04:50:22;;;;;;;;;14.67;13.33;;;;;;;;5057810;28;45517;-68
2023/07/14 04:52:47;;;;;;;;;16.00;15.00;;;;;;;;5057278;28;45440;-66
2023/07/14 04:55:12;;;;;;;;;15.33;15.33;;;;;;;;5033628;28;46141;-67
2023/07/14 04:57:37;;;;;;;;;13.00;11.67;;;;;;;;5072118;28;45359;-66
2023/07/14 05:00:05;;;;;;;;;12.00;11.00;;;;;;;;5044689;28;45551;-67
2023/07/14 05:02:30;;;;;;;;;13.33;10.33;;;;;;;;5043751;28;45915;-67
2023/07/14 05:05:08;;;;;;;;;15.00;14.67;;;;;;;;5068320;28;46059;-67
2023/07/14 05:07:34;;;;;;;;;18.00;14.67;;;;;;;;5047075;28;45703;-68
2023/07/14 05:09:59;;;;;;;;;12.00;12.00;;;;;;;;5049340;28;45334;-68
2023/07/14 05:12:24;;;;;;;;;16.00;11.33;;;;;;;;5045614;28;45495;-67
2023/07/14 05:14:49;;;;;;;;;10.67;10.67;;;;;;;;5063464;28;46438;-66
2023/07/14 05:17:14;;;;;;;;;12.00;11.33;;;;;;;;5049684;28;45536;-68
2023/07/14 05:19:40;;;;;;;;;12.33;9.67;;;;;;;;5035859;28;45611;-66
2023/07/14 05:22:05;;;;;;;;;16.00;11.00;;;;;;;;5055358;28;45893;-69
2023/07/14 05:24:30;;;;;;;;;11.00;11.00;;;;;;;;5048608;28;46835;-69
2023/07/14 05:26:56;;;;;;;;;10.33;10.33;;;;;;;;5046978;28;45762;-68
2023/07/14 05:29:21;;;;;;;;;15.67;7.67;;;;;;;;5049822;28;45417;-68
2023/07/14 05:31:47;;;;;;;;;16.67;13.00;;;;;;;;5020482;28;46033;-67
2023/07/14 05:34:13;;;;;;;;;15.67;14.00;;;;;;;;5054107;28;46147;-68
2023/07/14 05:36:39;;;;;;;;;12.33;12.33;;;;;;;;5049921;28;45730;-68
2023/07/14 05:39:04;;;;;;;;;14.67;12.00;;;;;;;;5064612;28;45385;-67
2023/07/14 05:41:29;;;;;;;;;11.33;9.33;;;;;;;;5066312;28;45522;-69
2023/07/14 05:43:54;;;;;;;;;9.67;8.33;;;;;;;;5047283;28;47826;-79
2023/07/14 05:46:19;;;;;;;;;8.67;8.00;;;;;;;;5032915;28;45839;-68
2023/07/14 05:48:45;;;;;;;;;8.33;8.33;;;;;;;;5068605;28;45573;-66
2023/07/14 05:51:10;;;;;;;;;5.33;5.33;;;;;;;;5056978;28;45438;-68
2023/07/14 05:53:35;;;;;;;;;7.33;6.33;;;;;;;;5048178;28;48400;-67
2023/07/14 05:56:01;;;;;;;;;3.67;3.67;;;;;;;;5069619;28;45887;-67
2023/07/14 05:58:26;;;;;;;;;4.33;4.33;;;;;;;;5062757;28;45784;-69
2023/07/14 06:00:54;;;;;;;;;6.00;4.33;;;;;;;;5038874;28;45825;-73
2023/07/14 06:03:19;;;;;;;;;3.67;3.67;;;;;;;;5041622;28;46055;-69
2023/07/14 06:05:46;;;;;;;;;6.00;4.00;;;;;;;;5019876;28;45825;-70
2023/07/14 06:08:11;;;;;;;;;7.33;4.33;;;;;;;;5032704;28;45468;-71
2023/07/14 06:10:36;;;;;;;;;3.00;3.00;;;;;;;;5056496;28;45483;-70
2023/07/14 06:13:02;;;;;;;;;5.33;4.00;;;;;;;;5049844;28;46196;-68
2023/07/14 06:15:28;;;;;;;;;2.25;2.25;;;;;;;;5048677;28;44973;-66
2023/07/14 06:17:53;;;;;;;;;3.00;3.00;;;;;;;;5069915;28;45586;-70
2023/07/14 06:20:19;;;;;;;;;2.67;2.67;;;;;;;;5062710;28;45349;-71
2023/07/14 06:22:45;;;;;;;;;4.67;4.67;;;;;;;;5051017;28;46251;-70
2023/07/14 06:25:10;;;;;;;;;5.00;5.00;;;;;;;;5035229;28;45313;-72
2023/07/14 06:27:35;;;;;;;;;3.75;3.00;;;;;;;;5068655;28;45661;-69
2023/07/14 06:30:00;;;;;;;;;2.75;2.25;;;;;;;;5059803;28;45352;-69
2023/07/14 06:32:26;;;;;;;;;3.00;3.00;;;;;;;;5041428;28;45540;-71
2023/07/14 06:34:51;;;;;;;;;3.00;3.00;;;;;;;;5037290;28;45413;-69
2023/07/14 06:37:16;;;;;;;;;4.00;4.00;;;;;;;;5034970;28;45481;-67
2023/07/14 06:39:42;;;;;;;;;5.50;4.00;;;;;;;;5040729;28;45478;-69
2023/07/14 06:42:07;;;;;;;;;4.75;4.00;;;;;;;;5064162;28;46386;-70
2023/07/14 06:44:33;;;;;;;;;4.00;4.00;;;;;;;;5041822;28;45447;-69
2023/07/14 06:46:58;;;;;;;;;3.25;3.00;;;;;;;;5067629;28;45522;-64
2023/07/14 06:49:23;;;;;;;;;4.67;4.67;;;;;;;;5017291;28;46205;-66
2023/07/14 06:51:49;;;;;;;;;3.50;3.50;;;;;;;;5037263;28;46389;-65
2023/07/14 06:54:14;;;;;;;;;4.75;3.25;;;;;;;;5036796;28;45942;-64
2023/07/14 06:56:39;;;;;;;;;3.00;3.00;;;;;;;;5067592;28;45837;-65
2023/07/14 06:59:04;;;;;;;;;6.50;6.00;;;;;;;;5059870;28;45712;-66
2023/07/14 07:01:30;;;;;;;;;5.50;4.25;;;;;;;;5058094;28;46095;-64
2023/07/14 07:03:55;;;;;;;;;6.00;5.00;;;;;;;;5051573;28;45772;-68
2023/07/14 07:06:20;;;;;;;;;4.75;3.25;;;;;;;;5055711;28;45641;-65
2023/07/14 07:08:46;;;;;;;;;4.75;4.00;;;;;;;;5052973;28;45354;-66
2023/07/14 07:11:12;;;;;;;;;4.25;3.00;;;;;;;;5041491;28;45461;-65
2023/07/14 07:13:37;;;;;;;;;4.00;4.00;;;;;;;;5033551;28;45757;-66
2023/07/14 07:16:02;;;;;;;;;3.25;3.25;;;;;;;;5063722;28;45449;-64
2023/07/14 07:18:28;;;;;;;;;4.25;3.25;;;;;;;;5052136;28;45620;-66
2023/07/14 07:20:54;;;;;;;;;11.25;5.25;;;;;;;;5068747;28;46683;-65
2023/07/14 07:23:19;;;;;;;;;5.50;5.50;;;;;;;;5056397;28;45694;-65
2023/07/14 07:25:49;;;;;;;;;4.75;4.50;;;;;;;;5045734;28;45848;-65
2023/07/14 07:28:14;;;;;;;;;4.75;2.75;;;;;;;;5052400;28;45674;-66
2023/07/14 07:30:39;;;;;;;;;5.75;5.75;;;;;;;;5058049;28;45597;-66
2023/07/14 07:33:04;;;;;;;;;2.00;2.00;;;;;;;;5068305;28;45404;-65
2023/07/14 07:35:29;;;;;;;;;5.00;5.00;;;;;;;;5053362;28;45764;-65
2023/07/14 07:37:55;;;;;;;;;4.00;3.25;;;;;;;;5060358;28;45337;-67
2023/07/14 07:40:20;;;;;;;;;5.00;4.00;;;;;;;;5048297;28;46785;-64
2023/07/14 07:42:45;;;;;;;;;3.50;3.50;;;;;;;;5056131;28;45707;-67
2023/07/14 07:45:11;;;;;;;;;3.25;3.25;;;;;;;;5046484;28;45972;-64
2023/07/14 07:47:36;;;;;;;;;4.00;4.00;;;;;;;;5036958;28;46216;-69
2023/07/14 07:50:03;;;;;;;;;4.75;4.50;;;;;;;;5041917;28;45862;-66
2023/07/14 07:52:28;;;;;;;;;4.75;3.50;;;;;;;;5033191;28;45354;-65
2023/07/14 07:54:53;;;;;;;;;5.00;4.00;;;;;;;;5036991;28;46057;-65
2023/07/14 07:57:18;;;;;;;;;5.75;4.75;;;;;;;;5050864;28;45595;-66
2023/07/14 07:59:44;;;;;;;;;3.75;3.75;;;;;;;;5043342;28;45354;-65
2023/07/14 08:02:11;;;;;;;;;6.50;5.50;;;;;;;;5036641;28;45631;-65
2023/07/14 08:04:37;;;;;;;;;4.50;4.50;;;;;;;;5052089;28;45516;-66
2023/07/14 08:07:02;;;;;;;;;4.00;4.00;;;;;;;;5060145;28;45893;-67
2023/07/14 08:09:27;;;;;;;;;4.25;4.25;;;;;;;;5054409;28;46051;-67
2023/07/14 08:11:56;;;;;;;;;4.25;4.25;;;;;;;;5057401;28;45479;-65
2023/07/14 08:14:21;;;;;;;;;6.25;5.00;;;;;;;;5057845;28;45450;-67
2023/07/14 08:16:46;;;;;;;;;3.75;3.00;;;;;;;;5045357;28;45571;-67
2023/07/14 08:19:13;;;;;;;;;4.50;4.00;;;;;;;;5041752;28;46087;-66
2023/07/14 08:21:39;;;;;;;;;5.50;5.00;;;;;;;;5050072;28;45611;-64
2023/07/14 08:24:05;;;;;;;;;5.00;4.00;;;;;;;;5035335;28;45439;-66
2023/07/14 08:26:34;;;;;;;;;8.25;6.00;;;;;;;;5032546;28;46865;-66
2023/07/14 08:28:59;;;;;;;;;5.75;4.00;;;;;;;;5058998;28;45447;-65
2023/07/14 08:31:25;;;;;;;;;5.25;5.25;;;;;;;;5047399;28;45370;-66
2023/07/14 08:33:51;;;;;;;;;4.25;3.50;;;;;;;;5053789;28;46416;-67
2023/07/14 08:36:16;;;;;;;;;4.75;3.00;;;;;;;;5060224;28;45528;-67
2023/07/14 08:38:41;;;;;;;;;3.75;3.75;;;;;;;;5046515;28;47285;-65
2023/07/14 08:41:22;;;;;;;;;5.75;4.00;;;;;;;;5051746;28;45819;-67
2023/07/14 08:43:58;;;;;;;;;3.50;3.50;;;;;;;;5052120;28;45515;-66
2023/07/14 08:46:34;;;;;;;;;5.00;4.00;;;;;;;;5036108;28;45986;-71
2023/07/14 08:49:04;;;;;;;;;4.75;3.25;;;;;;;;5047982;28;45592;-68
2023/07/14 08:51:36;;;;;;;;;4.25;4.25;;;;;;;;5041750;28;45772;-67
2023/07/14 08:54:19;;;;;;;;;7.25;4.25;;;;;;;;5042103;28;45600;-72
2023/07/14 08:56:45;;;;;;;;;3.75;3.75;;;;;;;;5038474;28;45613;-70
2023/07/14 08:59:14;;;;;;;;;4.50;4.50;;;;;;;;5056893;28;46202;-70
2023/07/14 09:01:49;;;;;;;;;4.00;3.00;;;;;;;;5053340;28;45911;-71
2023/07/14 09:04:17;;;;;;;;;8.50;5.00;;;;;;;;5047273;28;45734;-69
2023/07/14 09:06:42;;;;;;;;;4.50;4.50;;;;;;;;5048063;28;45409;-69
2023/07/14 09:09:16;;;;;;;;;3.25;3.25;;;;;;;;5055771;28;48016;-71
2023/07/14 09:11:42;;;;;;;;;4.00;3.25;;;;;;;;5073941;28;45757;-71
2023/07/14 09:14:12;;;;;;;;;5.00;4.00;;;;;;;;5072650;28;45777;-71
2023/07/14 09:16:45;;;;;;;;;2.25;2.25;;;;;;;;5052518;28;45671;-69
2023/07/14 09:19:26;;;;;;;;;5.00;3.75;;;;;;;;5054379;28;45365;-70
2023/07/14 09:21:59;;;;;;;;;3.25;3.25;;;;;;;;5056888;28;45464;-72
2023/07/14 09:24:40;;;;;;;;;3.00;3.00;;;;;;;;5050970;28;46028;-70
2023/07/14 09:27:11;;;;;;;;;3.25;3.25;;;;;;;;5052007;28;45649;-70
2023/07/14 09:29:40;;;;;;;;;3.25;3.25;;;;;;;;5042609;28;45814;-70
2023/07/14 09:32:24;;;;;;;;;2.75;2.00;;;;;;;;5041991;28;45390;-71
2023/07/14 09:35:12;;;;;;;;;2.25;2.00;;;;;;;;5069678;28;45697;-71
2023/07/14 09:37:53;;;;;;;;;3.00;3.00;;;;;;;;5066407;28;46391;-70
2023/07/14 09:40:23;;;;;;;;;2.75;2.50;;;;;;;;5072472;28;46305;-70
2023/07/14 09:42:52;;;;;;;;;2.25;2.25;;;;;;;;5072477;28;45833;-72
2023/07/14 09:45:22;;;;;;;;;3.50;3.25;;;;;;;;5051472;28;45541;-71
2023/07/14 09:47:52;;;;;;;;;3.00;1.00;;;;;;;;5060964;28;45443;-71
2023/07/14 09:50:18;;;;;;;;;5.75;4.25;;;;;;;;5056046;28;45636;-71
2023/07/14 09:52:57;;;;;;;;;3.25;3.25;;;;;;;;5064439;28;45442;-67
2023/07/14 09:55:24;;;;;;;;;5.00;5.00;;;;;;;;5048985;28;45474;-64
2023/07/14 09:57:53;;;;;;;;;2.00;2.00;;;;;;;;5030850;28;45922;-66
2023/07/14 10:00:37;;;;;;;;;4.25;3.75;;;;;;;;5060688;28;46097;-66
2023/07/14 10:03:06;;;;;;;;;4.00;2.25;;;;;;;;5035569;28;45388;-68
2023/07/14 10:05:34;;;;;;;;;2.25;2.25;;;;;;;;5049286;28;45454;-67
2023/07/14 10:08:00;;;;;;;;;3.25;3.25;;;;;;;;5037994;28;45473;-67
2023/07/14 10:10:26;;;;;;;;;4.00;2.50;;;;;;;;5039083;28;46131;-67
2023/07/14 10:12:52;;;;;;;;;4.75;3.00;;;;;;;;5031305;28;45747;-69
2023/07/14 10:15:23;;;;;;;;;2.25;2.25;;;;;;;;5040605;28;45924;-68
2023/07/14 10:17:53;;;;;;;;;3.00;2.00;;;;;;;;5046973;28;45347;-67
2023/07/14 10:20:19;;;;;;;;;4.00;3.00;;;;;;;;5047957;28;45575;-67
2023/07/14 10:22:49;;;;;;;;;2.00;2.00;;;;;;;;5052673;28;45445;-68
2023/07/14 10:25:17;;;;;;;;;3.00;3.00;;;;;;;;5065105;28;45397;-68
2023/07/14 10:27:52;;;;;;;;;1.50;1.50;;;;;;;;5038452;28;46592;-73
2023/07/14 10:30:50;;;;;;;;;2.00;2.00;;;;;;;;5037889;28;46176;-72
2023/07/14 10:33:20;;;;;;;;;2.00;2.00;;;;;;;;5038495;28;45555;-67
2023/07/14 10:35:45;;;;;;;;;3.25;2.25;;;;;;;;5058698;28;45564;-66
2023/07/14 10:38:19;;;;;;;;;5.50;1.25;;;;;;;;5034975;28;46068;-72
2023/07/14 10:41:04;;;;;;;;;3.00;3.00;;;;;;;;5048473;28;46404;-71
2023/07/14 10:43:33;;;;;;;;;3.00;2.25;;;;;;;;5054432;28;45358;-72
2023/07/14 10:46:01;;;;;;;;;3.75;3.75;;;;;;;;5055829;28;45636;-72
2023/07/14 10:48:29;;;;;;;;;1.25;1.25;;;;;;;;5060804;28;45690;-71
2023/07/14 10:50:58;;;;;;;;;2.00;2.00;;;;;;;;5050896;28;46723;-71
2023/07/14 10:53:35;;;;;;;;;3.25;3.25;;;;;;;;5020062;28;45482;-71
2023/07/14 10:56:05;;;;;;;;;4.00;4.00;;;;;;;;5051510;28;45814;-66
2023/07/14 10:58:41;;;;;;;;;5.00;4.00;;;;;;;;5060905;28;45889;-66
2023/07/14 11:01:15;;;;;;;;;2.00;2.00;;;;;;;;5050189;28;46194;-67
2023/07/14 11:03:47;;;;;;;;;4.00;4.00;;;;;;;;5058037;28;45720;-66
2023/07/14 11:06:22;;;;;;;;;4.00;3.00;;;;;;;;5061132;28;45511;-68
2023/07/14 11:08:50;;;;;;;;;3.00;3.00;;;;;;;;5058646;28;45419;-69
2023/07/14 11:11:25;;;;;;;;;4.50;3.50;;;;;;;;5046616;28;46399;-67
2023/07/14 11:13:50;;;;;;;;;3.25;3.25;;;;;;;;5053566;28;45759;-68
2023/07/14 11:16:31;;;;;;;;;3.50;3.50;;;;;;;;5051717;28;45856;-67
2023/07/14 11:18:57;;;;;;;;;2.50;2.50;;;;;;;;5030573;28;45734;-66
2023/07/14 11:21:27;;;;;;;;;2.50;2.25;;;;;;;;5049201;28;47383;-68
2023/07/14 11:23:59;;;;;;;;;2.75;0.50;;;;;;;;5060002;28;45387;-68
2023/07/14 11:26:41;;;;;;;;;4.00;4.00;;;;;;;;5066484;28;45893;-67
2023/07/14 11:29:19;;;;;;;;;4.00;3.50;;;;;;;;5072361;28;45582;-67
2023/07/14 11:31:51;;;;;;;;;3.75;3.75;;;;;;;;5056716;28;46162;-67
2023/07/14 11:34:19;;;;;;;;;2.00;2.00;;;;;;;;5034201;28;45474;-68
2023/07/14 11:36:44;;;;;;;;;4.50;4.50;;;;;;;;5036003;28;45433;-67
2023/07/14 11:39:16;;;;;;;;;3.00;3.00;;;;;;;;5052799;28;45596;-68
2023/07/14 11:41:42;;;;;;;;;3.00;3.00;;;;;;;;5048283;28;45635;-67
2023/07/14 11:44:10;;;;;;;;;4.00;3.00;;;;;;;;5034286;28;45847;-66
2023/07/14 11:46:36;;;;;;;;;2.00;2.00;;;;;;;;5048605;28;45864;-66
2023/07/14 11:49:06;;;;;;;;;6.00;5.00;;;;;;;;5048221;28;45468;-66
2023/07/14 11:51:50;;;;;;;;;4.00;2.75;;;;;;;;5037206;28;45657;-66
2023/07/14 11:54:16;;;;;;;;;3.50;3.50;;;;;;;;5037007;28;45782;-68
2023/07/14 11:56:45;;;;;;;;;3.00;3.00;;;;;;;;5049249;28;45287;-67
2023/07/14 11:59:10;;;;;;;;;3.75;3.75;;;;;;;;5046422;28;45820;-66
2023/07/14 12:01:43;;;;;;;;;3.00;3.00;;;;;;;;5045958;28;45834;-67
2023/07/14 12:04:20;;;;;;;;;3.25;2.25;;;;;;;;5050482;28;45423;-67
2023/07/14 12:06:48;;;;;;;;;5.00;3.25;;;;;;;;5058021;28;45495;-66
2023/07/14 12:09:19;;;;;;;;;4.75;4.00;;;;;;;;5053758;28;45591;-66
2023/07/14 12:11:50;;;;;;;;;3.00;2.00;;;;;;;;5055714;28;45649;-68
2023/07/14 12:14:27;;;;;;;;;2.25;1.00;;;;;;;;5056693;28;45586;-65
2023/07/14 12:16:55;;;;;;;;;3.00;3.00;;;;;;;;5056317;28;45600;-66
2023/07/14 12:19:31;;;;;;;;;3.00;2.00;;;;;;;;5054205;28;45648;-66
2023/07/14 12:22:04;;;;;;;;;4.00;3.00;;;;;;;;5058741;28;45935;-66
2023/07/14 12:24:34;;;;;;;;;1.00;1.00;;;;;;;;5044345;28;45457;-68
2023/07/14 12:27:02;;;;;;;;;2.50;2.00;;;;;;;;5047300;28;45372;-67
2023/07/14 12:29:30;;;;;;;;;4.00;3.00;;;;;;;;5056039;28;45313;-67
2023/07/14 12:31:56;;;;;;;;;4.50;3.50;;;;;;;;5049170;28;46027;-68
2023/07/14 12:34:23;;;;;;;;;2.00;2.00;;;;;;;;5055209;28;45498;-66
2023/07/14 12:36:48;;;;;;;;;3.25;2.00;;;;;;;;5031951;28;45464;-65
2023/07/14 12:39:14;;;;;;;;;4.00;3.00;;;;;;;;5053451;28;45732;-65
2023/07/14 12:41:41;;;;;;;;;4.00;2.75;;;;;;;;5050602;28;45841;-67
2023/07/14 12:44:10;;;;;;;;;2.00;2.00;;;;;;;;5061055;28;46439;-67
2023/07/14 12:46:36;;;;;;;;;4.00;4.00;;;;;;;;5042414;28;45508;-66
2023/07/14 12:49:03;;;;;;;;;2.50;2.50;;;;;;;;5027406;28;46172;-68
2023/07/14 12:51:29;;;;;;;;;3.00;2.00;;;;;;;;5038841;28;46389;-67
2023/07/14 12:54:00;;;;;;;;;3.00;3.00;;;;;;;;5053304;28;45869;-68
2023/07/14 12:56:28;;;;;;;;;3.00;3.00;;;;;;;;5057676;28;45433;-67
2023/07/14 12:58:57;;;;;;;;;3.25;3.25;;;;;;;;5043827;28;45449;-66
2023/07/14 13:01:23;;;;;;;;;3.00;3.00;;;;;;;;5053235;28;46262;-65
2023/07/14 13:03:48;;;;;;;;;3.25;3.25;;;;;;;;5037525;28;45624;-66
2023/07/14 13:06:17;;;;;;;;;2.00;2.00;;;;;;;;5038795;28;45414;-67
2023/07/14 13:08:50;;;;;;;;;2.00;2.00;;;;;;;;5053731;28;45464;-65
2023/07/14 13:11:22;;;;;;;;;2.00;2.00;;;;;;;;5057785;28;45550;-65
2023/07/14 13:13:52;;;;;;;;;2.50;2.25;;;;;;;;5046612;28;45426;-65
2023/07/14 13:16:20;;;;;;;;;3.25;3.25;;;;;;;;5046786;28;45431;-67
2023/07/14 13:18:55;;;;;;;;;3.00;1.75;;;;;;;;5049593;28;45492;-65
2023/07/14 13:24:24;;;;;;;;;2.25;2.25;;;;;;;;5052374;28;45423;-66
2023/07/14 13:26:51;;;;;;;;;2.00;1.00;;;;;;;;5039353;28;45835;-66
2023/07/14 13:29:19;;;;;;;;;3.75;3.25;;;;;;;;5031223;28;45440;-67
2023/07/14 13:31:45;;;;;;;;;3.50;2.25;;;;;;;;5043993;28;46783;-65
2023/07/14 13:34:21;;;;;;;;;2.50;2.50;;;;;;;;5027346;28;45748;-68
2023/07/14 13:36:49;;;;;;;;;2.25;1.50;;;;;;;;5042793;28;45796;-67
2023/07/14 13:39:34;;;;;;;;;3.75;3.75;;;;;;;;5047736;28;45762;-65
2023/07/14 13:42:01;;;;;;;;;2.00;2.00;;;;;;;;5049762;28;46617;-67
2023/07/14 13:44:30;;;;;;;;;2.25;2.00;;;;;;;;5044201;28;45878;-65
2023/07/14 13:46:55;;;;;;;;;2.00;2.00;;;;;;;;5045553;28;45416;-67
2023/07/14 13:49:21;;;;;;;;;3.00;3.00;;;;;;;;5050518;28;45726;-66
2023/07/14 13:51:50;;;;;;;;;1.50;1.50;;;;;;;;5035671;28;46544;-67
2023/07/14 13:54:16;;;;;;;;;2.00;2.00;;;;;;;;5038183;28;45796;-66
2023/07/14 13:56:41;;;;;;;;;2.25;2.25;;;;;;;;5038509;28;45408;-66
2023/07/14 14:02:08;;;;;;;;;1.75;1.75;;;;;;;;5043940;28;45925;-70
2023/07/14 14:04:33;;;;;;;;;3.75;2.50;;;;;;;;5060511;28;45760;-71
2023/07/14 14:06:58;;;;;;;;;2.00;1.50;;;;;;;;5041166;28;45347;-66
2023/07/14 14:09:23;;;;;;;;;2.50;2.00;;;;;;;;5053858;28;45488;-67
2023/07/14 14:11:49;;;;;;;;;3.75;2.00;;;;;;;;5050926;28;45573;-65
2023/07/14 14:14:15;;;;;;;;;4.00;2.50;;;;;;;;5055739;28;45651;-65
2023/07/14 14:16:44;;;;;;;;;3.00;3.00;;;;;;;;5021683;28;45466;-65
2023/07/14 14:19:16;;;;;;;;;2.50;2.50;;;;;;;;5061537;28;45620;-66
2023/07/14 14:21:42;;;;;;;;;1.00;1.00;;;;;;;;5032156;28;45398;-70
2023/07/14 14:24:07;;;;;;;;;1.75;1.25;;;;;;;;5059783;28;45425;-71
2023/07/14 14:26:33;;;;;;;;;2.50;2.50;;;;;;;;5057876;28;45511;-70
2023/07/14 14:28:58;;;;;;;;;1.00;1.00;;;;;;;;5066874;28;45394;-70
2023/07/14 14:31:24;;;;;;;;;2.00;2.00;;;;;;;;5056592;28;46128;-70
2023/07/14 14:33:52;;;;;;;;;3.00;1.25;;;;;;;;5034973;28;45374;-71
2023/07/14 14:36:17;;;;;;;;;2.00;2.00;;;;;;;;5044556;28;45785;-71
2023/07/14 14:38:43;;;;;;;;;2.25;2.25;;;;;;;;5052472;28;45457;-71
2023/07/14 14:41:18;;;;;;;;;2.50;2.50;;;;;;;;5053864;28;45773;-72
2023/07/14 14:43:43;;;;;;;;;2.50;2.00;;;;;;;;5065579;28;45338;-71